createdAt,value
2022-10-08T00:02:11.857Z,14.50
2022-10-08T00:05:14.994Z,14.50
2022-10-08T00:08:17.934Z,14.40
2022-10-08T00:11:23.206Z,14.40
2022-10-08T00:14:27.572Z,14.40
2022-10-08T00:17:30.556Z,14.30
2022-10-08T00:20:33.778Z,14.30
2022-10-08T00:23:36.756Z,14.30
2022-10-08T00:26:43.565Z,14.30
2022-10-08T00:29:48.575Z,14.30
2022-10-08T00:32:51.498Z,14.30
2022-10-08T00:35:54.507Z,14.30
2022-10-08T00:38:58.364Z,14.30
2022-10-08T00:42:02.167Z,14.30
2022-10-08T00:45:12.401Z,14.20
2022-10-08T00:48:20.960Z,14.20
2022-10-08T00:51:25.361Z,14.20
2022-10-08T00:54:29.587Z,14.30
2022-10-08T00:57:32.721Z,14.20
2022-10-08T01:00:37.033Z,14.20
2022-10-08T01:03:40.009Z,14.20
2022-10-08T01:06:48.595Z,14.10
2022-10-08T01:09:59.490Z,14.10
2022-10-08T01:13:16.660Z,14.10
2022-10-08T01:16:28.549Z,14.00
2022-10-08T01:19:55.849Z,13.90
2022-10-08T01:23:22.575Z,13.90
2022-10-08T01:26:39.979Z,13.90
2022-10-08T01:29:48.899Z,13.90
2022-10-08T01:32:57.715Z,13.90
2022-10-08T01:36:04.189Z,13.90
2022-10-08T01:39:11.749Z,13.90
2022-10-08T01:42:16.287Z,13.90
2022-10-08T01:45:25.371Z,13.80
2022-10-08T01:48:32.686Z,13.80
2022-10-08T01:51:40.843Z,13.80
2022-10-08T01:54:48.708Z,13.70
2022-10-08T01:57:53.410Z,13.80
2022-10-08T02:01:00.425Z,13.80
2022-10-08T02:04:21.355Z,13.80
2022-10-08T02:07:28.954Z,13.70
2022-10-08T02:10:32.435Z,13.70
2022-10-08T02:13:35.450Z,13.70
2022-10-08T02:16:45.463Z,13.70
2022-10-08T02:19:54.346Z,13.70
2022-10-08T02:23:03.173Z,13.70
2022-10-08T02:26:10.203Z,13.70
2022-10-08T02:29:17.888Z,13.70
2022-10-08T02:32:28.960Z,13.70
2022-10-08T02:35:38.692Z,13.70
2022-10-08T02:38:47.701Z,13.70
2022-10-08T02:41:53.975Z,13.60
2022-10-08T02:45:02.091Z,13.60
2022-10-08T02:48:11.804Z,13.50
2022-10-08T02:51:18.597Z,13.50
2022-10-08T02:54:23.669Z,13.50
2022-10-08T02:57:32.171Z,13.40
2022-10-08T03:00:39.987Z,13.40
2022-10-08T03:03:48.979Z,13.50
2022-10-08T03:06:54.088Z,13.50
2022-10-08T03:09:59.123Z,13.50
2022-10-08T03:13:03.510Z,13.50
2022-10-08T03:16:09.809Z,13.50
2022-10-08T03:19:16.846Z,13.50
2022-10-08T03:22:20.139Z,13.50
2022-10-08T03:25:23.090Z,13.50
2022-10-08T03:28:26.076Z,13.50
2022-10-08T03:31:29.040Z,13.40
2022-10-08T03:34:33.732Z,13.50
2022-10-08T03:37:36.691Z,13.40
2022-10-08T03:40:39.667Z,13.50
2022-10-08T03:43:42.667Z,13.50
2022-10-08T03:46:45.628Z,13.50
2022-10-08T03:49:49.899Z,13.50
2022-10-08T03:52:52.861Z,13.50
2022-10-08T03:55:56.208Z,13.50
2022-10-08T03:59:00.844Z,13.50
2022-10-08T04:02:03.885Z,13.50
2022-10-08T04:05:09.326Z,13.50
2022-10-08T04:08:12.277Z,13.40
2022-10-08T04:11:17.134Z,13.40
2022-10-08T04:14:20.163Z,13.40
2022-10-08T04:17:23.146Z,13.40
2022-10-08T04:20:27.479Z,13.40
2022-10-08T04:23:33.231Z,13.40
2022-10-08T04:26:36.344Z,13.30
2022-10-08T04:29:39.280Z,13.40
2022-10-08T04:32:42.390Z,13.40
2022-10-08T04:35:46.689Z,13.40
2022-10-08T04:38:50.342Z,13.40
2022-10-08T04:41:53.297Z,13.30
2022-10-08T04:44:56.237Z,13.40
2022-10-08T04:47:59.184Z,13.30
2022-10-08T04:51:10.248Z,13.30
2022-10-08T04:54:13.638Z,13.30
2022-10-08T04:57:16.622Z,13.40
2022-10-08T05:00:19.751Z,13.40
2022-10-08T05:03:22.719Z,13.40
2022-10-08T05:06:28.654Z,13.30
2022-10-08T05:09:31.602Z,13.30
2022-10-08T05:12:34.753Z,13.30
2022-10-08T05:15:37.797Z,13.30
2022-10-08T05:18:42.836Z,13.30
2022-10-08T05:21:47.137Z,13.30
2022-10-08T05:24:50.077Z,13.20
2022-10-08T05:27:53.014Z,13.20
2022-10-08T05:31:00.870Z,13.20
2022-10-08T05:34:03.837Z,13.20
2022-10-08T05:37:08.156Z,13.30
2022-10-08T05:40:11.943Z,13.30
2022-10-08T05:43:14.903Z,13.20
2022-10-08T05:46:18.838Z,13.20
2022-10-08T05:49:23.823Z,13.20
2022-10-08T05:52:28.114Z,13.30
2022-10-08T05:55:31.081Z,13.30
2022-10-08T05:58:35.047Z,13.30
2022-10-08T06:01:38.010Z,13.20
2022-10-08T06:04:40.982Z,13.20
2022-10-08T06:07:45.325Z,13.20
2022-10-08T06:10:52.571Z,13.20
2022-10-08T06:13:56.858Z,13.20
2022-10-08T06:16:59.791Z,13.20
2022-10-08T06:20:02.775Z,13.20
2022-10-08T06:23:07.052Z,13.10
2022-10-08T06:26:11.186Z,13.10
2022-10-08T06:29:16.556Z,13.20
2022-10-08T06:32:19.543Z,13.20
2022-10-08T06:35:22.488Z,13.20
2022-10-08T06:38:26.806Z,13.20
2022-10-08T06:41:33.408Z,13.30
2022-10-08T06:44:36.439Z,13.30
2022-10-08T06:47:39.411Z,13.20
2022-10-08T06:50:42.818Z,13.20
2022-10-08T06:53:53.228Z,13.20
2022-10-08T06:56:56.222Z,13.20
2022-10-08T06:59:59.171Z,13.20
2022-10-08T07:03:02.217Z,13.20
2022-10-08T07:06:07.728Z,13.20
2022-10-08T07:09:13.375Z,13.20
2022-10-08T07:12:16.358Z,13.20
2022-10-08T07:15:19.295Z,13.20
2022-10-08T07:18:22.239Z,13.30
2022-10-08T07:21:25.265Z,13.40
2022-10-08T07:24:29.559Z,13.40
2022-10-08T07:27:32.536Z,13.50
2022-10-08T07:30:37.591Z,13.60
2022-10-08T07:33:40.779Z,13.60
2022-10-08T07:36:43.941Z,13.70
2022-10-08T07:39:48.314Z,13.70
2022-10-08T07:42:51.804Z,13.70
2022-10-08T07:45:54.891Z,13.70
2022-10-08T07:48:59.167Z,13.80
2022-10-08T07:52:02.351Z,13.90
2022-10-08T07:55:07.228Z,13.90
2022-10-08T07:58:10.200Z,14.00
2022-10-08T08:01:15.935Z,14.10
2022-10-08T08:04:19.030Z,14.10
2022-10-08T08:07:22.024Z,14.20
2022-10-08T08:10:26.394Z,14.20
2022-10-08T08:13:33.052Z,14.30
2022-10-08T08:16:40.279Z,14.40
2022-10-08T08:19:43.308Z,14.50
2022-10-08T08:22:46.546Z,14.50
2022-10-08T08:25:51.043Z,14.70
2022-10-08T08:28:55.299Z,15.20
2022-10-08T08:31:58.381Z,15.70
2022-10-08T08:35:01.362Z,15.80
2022-10-08T08:38:04.329Z,15.80
2022-10-08T08:41:19.774Z,15.70
2022-10-08T08:44:26.307Z,15.60
2022-10-08T08:47:35.695Z,15.50
2022-10-08T08:50:47.926Z,15.60
2022-10-08T08:53:51.718Z,15.60
2022-10-08T08:56:56.275Z,15.70
2022-10-08T09:00:04.894Z,15.70
2022-10-08T09:03:15.237Z,15.80
2022-10-08T09:06:22.614Z,15.80
2022-10-08T09:09:30.597Z,15.90
2022-10-08T09:12:39.465Z,15.80
2022-10-08T09:15:43.976Z,15.80
2022-10-08T09:18:48.783Z,15.70
2022-10-08T09:21:51.871Z,15.60
2022-10-08T09:24:59.958Z,15.60
2022-10-08T09:28:05.082Z,15.60
2022-10-08T09:31:26.905Z,15.60
2022-10-08T09:34:31.298Z,15.70
2022-10-08T09:37:34.306Z,15.70
2022-10-08T09:40:37.273Z,15.70
2022-10-08T09:43:41.584Z,15.90
2022-10-08T09:46:45.473Z,15.90
2022-10-08T09:50:02.391Z,16.00
2022-10-08T09:53:07.223Z,16.10
2022-10-08T09:56:11.780Z,16.20
2022-10-08T09:59:21.518Z,16.30
2022-10-08T10:02:30.797Z,16.30
2022-10-08T10:05:36.127Z,16.20
2022-10-08T10:08:49.799Z,16.30
2022-10-08T10:11:56.397Z,16.40
2022-10-08T10:15:03.879Z,16.40
2022-10-08T10:18:14.204Z,16.50
2022-10-08T10:21:22.310Z,16.70
2022-10-08T10:24:41.441Z,16.80
2022-10-08T10:27:50.503Z,16.80
2022-10-08T10:31:00.385Z,16.70
2022-10-08T10:34:10.533Z,16.80
2022-10-08T10:37:19.681Z,16.80
2022-10-08T10:40:36.122Z,16.90
2022-10-08T10:43:49.162Z,17.00
2022-10-08T10:46:58.048Z,17.10
2022-10-08T10:50:02.522Z,17.10
2022-10-08T10:53:14.651Z,17.10
2022-10-08T10:56:19.979Z,17.10
2022-10-08T10:59:35.184Z,16.90
2022-10-08T11:02:46.746Z,16.90
2022-10-08T11:05:56.900Z,16.90
2022-10-08T11:09:04.133Z,16.90
2022-10-08T11:12:21.762Z,16.80
2022-10-08T11:15:36.653Z,16.80
2022-10-08T11:18:48.565Z,16.80
2022-10-08T11:22:02.116Z,16.70
2022-10-08T11:25:19.260Z,16.40
2022-10-08T11:28:33.303Z,15.40
2022-10-08T11:31:42.067Z,14.60
2022-10-08T11:34:54.372Z,14.00
2022-10-08T11:38:07.031Z,13.80
2022-10-08T11:41:17.312Z,13.70
2022-10-08T11:44:21.583Z,13.40
2022-10-08T11:47:47.613Z,13.50
2022-10-08T11:50:52.114Z,14.40
2022-10-08T11:54:08.324Z,15.80
2022-10-08T11:57:14.501Z,16.50
2022-10-08T12:00:32.287Z,16.60
2022-10-08T12:03:38.062Z,17.10
2022-10-08T12:06:42.550Z,18.60
2022-10-08T12:10:30.820Z,19.30
2022-10-08T12:13:33.859Z,20.30
2022-10-08T12:17:10.451Z,21.50
2022-10-08T12:20:22.628Z,22.60
2022-10-08T12:23:42.163Z,23.60
2022-10-08T12:27:20.852Z,23.50
2022-10-08T12:30:51.838Z,25.00
2022-10-08T12:34:00.753Z,25.80
2022-10-08T12:37:16.397Z,25.80
2022-10-08T12:40:31.033Z,26.10
2022-10-08T12:43:41.966Z,25.40
2022-10-08T12:46:53.710Z,25.10
2022-10-08T12:50:01.299Z,24.00
2022-10-08T12:53:05.957Z,22.20
2022-10-08T12:56:09.139Z,21.20
2022-10-08T12:59:13.567Z,20.20
2022-10-08T13:02:28.982Z,20.80
2022-10-08T13:05:34.119Z,22.10
2022-10-08T13:08:38.834Z,23.50
2022-10-08T13:11:43.136Z,23.80
2022-10-08T13:14:46.100Z,24.40
2022-10-08T13:17:50.741Z,24.40
2022-10-08T13:20:58.317Z,23.50
2022-10-08T13:24:01.579Z,23.10
2022-10-08T13:27:04.822Z,22.90
2022-10-08T13:30:28.502Z,21.90
2022-10-08T13:33:35.905Z,20.30
2022-10-08T13:36:38.914Z,19.40
2022-10-08T13:39:43.519Z,18.70
2022-10-08T13:42:49.143Z,18.30
2022-10-08T13:45:52.460Z,18.20
2022-10-08T13:48:56.761Z,18.00
2022-10-08T13:52:00.128Z,17.70
2022-10-08T13:55:06.043Z,17.60
2022-10-08T13:58:09.138Z,17.40
2022-10-08T14:01:12.126Z,16.90
2022-10-08T14:04:17.878Z,16.70
2022-10-08T14:07:25.003Z,16.50
2022-10-08T14:10:28.370Z,16.50
2022-10-08T14:13:31.335Z,16.60
2022-10-08T14:16:34.396Z,16.80
2022-10-08T14:19:38.728Z,16.70
2022-10-08T14:22:41.862Z,16.40
2022-10-08T14:25:44.829Z,16.20
2022-10-08T14:28:47.856Z,16.00
2022-10-08T14:31:50.903Z,16.00
2022-10-08T14:34:55.288Z,16.00
2022-10-08T14:37:58.245Z,16.00
2022-10-08T14:41:01.366Z,15.90
2022-10-08T14:44:04.382Z,15.90
2022-10-08T14:47:07.421Z,15.80
2022-10-08T14:50:13.448Z,15.80
2022-10-08T14:53:16.462Z,15.80
2022-10-08T14:56:19.599Z,15.80
2022-10-08T14:59:22.790Z,15.80
2022-10-08T15:02:25.880Z,15.80
2022-10-08T15:05:30.318Z,15.80
2022-10-08T15:08:33.277Z,15.80
2022-10-08T15:11:36.243Z,15.80
2022-10-08T15:14:39.182Z,15.80
2022-10-08T15:17:42.197Z,15.80
2022-10-08T15:20:55.542Z,15.90
2022-10-08T15:23:58.510Z,16.00
2022-10-08T15:27:01.482Z,16.00
2022-10-08T15:30:05.116Z,16.00
2022-10-08T15:33:08.142Z,15.90
2022-10-08T15:36:23.353Z,16.10
2022-10-08T15:39:26.431Z,16.10
2022-10-08T15:42:29.408Z,16.00
2022-10-08T15:45:32.474Z,15.70
2022-10-08T15:48:35.578Z,15.50
2022-10-08T15:51:40.070Z,15.20
2022-10-08T15:54:43.754Z,14.60
2022-10-08T15:57:46.723Z,14.20
2022-10-08T16:00:49.961Z,13.90
2022-10-08T16:03:54.817Z,13.70
2022-10-08T16:06:59.162Z,13.70
2022-10-08T16:10:02.378Z,13.50
2022-10-08T16:13:05.408Z,13.50
2022-10-08T16:16:14.053Z,13.50
2022-10-08T16:19:19.836Z,13.60
2022-10-08T16:22:24.134Z,13.60
2022-10-08T16:25:27.179Z,13.50
2022-10-08T16:28:33.634Z,13.50
2022-10-08T16:31:38.487Z,13.50
2022-10-08T16:34:44.910Z,13.40
2022-10-08T16:37:51.855Z,13.40
2022-10-08T16:40:54.817Z,13.40
2022-10-08T16:43:59.201Z,13.50
2022-10-08T16:47:02.240Z,13.50
2022-10-08T16:50:05.893Z,13.40
2022-10-08T16:53:11.079Z,13.20
2022-10-08T16:56:14.075Z,13.20
2022-10-08T16:59:18.993Z,13.00
2022-10-08T17:02:25.779Z,13.00
2022-10-08T17:05:29.109Z,13.10
2022-10-08T17:08:33.448Z,13.10
2022-10-08T17:11:36.883Z,13.00
2022-10-08T17:14:39.847Z,13.00
2022-10-08T17:17:42.823Z,13.10
2022-10-08T17:20:45.783Z,13.10
2022-10-08T17:23:50.720Z,13.00
2022-10-08T17:26:53.862Z,12.90
2022-10-08T17:29:56.824Z,12.80
2022-10-08T17:33:00.042Z,12.80
2022-10-08T17:36:04.147Z,12.70
2022-10-08T17:39:11.914Z,12.70
2022-10-08T17:42:14.931Z,12.70
2022-10-08T17:45:17.925Z,12.60
2022-10-08T17:48:20.937Z,12.60
2022-10-08T17:51:26.600Z,12.50
2022-10-08T17:54:30.938Z,12.50
2022-10-08T17:57:33.918Z,12.50
2022-10-08T18:00:37.059Z,12.50
2022-10-08T18:03:42.095Z,12.50
2022-10-08T18:06:46.951Z,12.40
2022-10-08T18:09:51.367Z,12.50
2022-10-08T18:12:54.344Z,12.50
2022-10-08T18:15:57.361Z,12.50
2022-10-08T18:19:04.892Z,12.50
2022-10-08T18:22:10.736Z,12.50
2022-10-08T18:25:15.128Z,12.50
2022-10-08T18:28:20.212Z,12.30
2022-10-08T18:31:25.158Z,12.30
2022-10-08T18:34:28.323Z,12.30
2022-10-08T18:37:31.350Z,12.20
2022-10-08T18:40:35.759Z,12.20
2022-10-08T18:43:38.899Z,12.20
2022-10-08T18:46:42.246Z,12.20
2022-10-08T18:49:45.256Z,12.20
2022-10-08T18:52:48.438Z,12.20
2022-10-08T18:55:53.179Z,12.10
2022-10-08T18:58:56.281Z,12.20
2022-10-08T19:01:59.754Z,12.20
2022-10-08T19:05:02.801Z,12.20
2022-10-08T19:08:05.780Z,12.20
2022-10-08T19:11:15.275Z,12.20
2022-10-08T19:14:20.208Z,12.20
2022-10-08T19:17:23.239Z,12.20
2022-10-08T19:20:26.194Z,12.30
2022-10-08T19:23:29.177Z,12.20
2022-10-08T19:26:33.499Z,12.10
2022-10-08T19:29:36.471Z,12.20
2022-10-08T19:32:39.430Z,12.30
2022-10-08T19:35:42.571Z,12.30
2022-10-08T19:38:45.973Z,12.20
2022-10-08T19:41:50.653Z,12.10
2022-10-08T19:44:53.612Z,12.10
2022-10-08T19:47:56.605Z,12.00
2022-10-08T19:51:04.787Z,12.10
2022-10-08T19:54:08.175Z,12.10
2022-10-08T19:57:12.488Z,12.00
2022-10-08T20:00:16.159Z,12.00
2022-10-08T20:03:19.135Z,12.00
2022-10-08T20:06:24.843Z,11.90
2022-10-08T20:09:28.131Z,11.90
2022-10-08T20:12:32.427Z,11.80
2022-10-08T20:15:36.459Z,11.80
2022-10-08T20:18:39.629Z,11.80
2022-10-08T20:21:42.764Z,11.60
2022-10-08T20:24:45.759Z,11.60
2022-10-08T20:27:50.088Z,11.60
2022-10-08T20:30:53.106Z,11.60
2022-10-08T20:33:58.278Z,11.60
2022-10-08T20:37:02.447Z,11.60
2022-10-08T20:40:06.247Z,11.60
2022-10-08T20:43:10.616Z,11.60
2022-10-08T20:46:16.154Z,11.60
2022-10-08T20:49:19.569Z,11.60
2022-10-08T20:52:22.517Z,11.70
2022-10-08T20:55:25.495Z,11.60
2022-10-08T20:58:31.227Z,11.60
2022-10-08T21:01:36.093Z,11.60
2022-10-08T21:04:39.166Z,11.60
2022-10-08T21:07:42.157Z,11.60
2022-10-08T21:10:45.092Z,11.60
2022-10-08T21:13:49.746Z,11.60
2022-10-08T21:16:53.492Z,11.50
2022-10-08T21:19:56.466Z,11.50
2022-10-08T21:22:59.417Z,11.50
2022-10-08T21:26:10.699Z,11.50
2022-10-08T21:29:15.474Z,11.50
2022-10-08T21:32:18.427Z,11.50
2022-10-08T21:35:21.399Z,11.40
2022-10-08T21:38:24.727Z,11.30
2022-10-08T21:41:30.522Z,11.30
2022-10-08T21:44:35.374Z,11.30
2022-10-08T21:47:38.346Z,11.20
2022-10-08T21:50:41.318Z,11.20
2022-10-08T21:53:46.849Z,11.20
2022-10-08T21:56:49.994Z,11.20
2022-10-08T21:59:54.302Z,11.20
2022-10-08T22:02:57.246Z,11.30
2022-10-08T22:06:02.465Z,11.30
2022-10-08T22:09:05.915Z,11.20
2022-10-08T22:12:08.913Z,11.20
2022-10-08T22:15:13.358Z,11.10
2022-10-08T22:18:16.319Z,11.10
2022-10-08T22:21:21.491Z,11.10
2022-10-08T22:24:24.511Z,11.10
2022-10-08T22:27:29.755Z,11.10
2022-10-08T22:30:36.984Z,11.10
2022-10-08T22:33:40.092Z,11.00
2022-10-08T22:36:45.185Z,11.10
2022-10-08T22:39:48.274Z,11.00
2022-10-08T22:42:51.383Z,11.00
2022-10-08T22:45:55.842Z,11.00
2022-10-08T22:48:59.462Z,11.00
2022-10-08T22:52:02.592Z,10.90
2022-10-08T22:55:06.291Z,10.90
2022-10-08T22:58:09.631Z,10.90
2022-10-08T23:01:15.570Z,10.90
2022-10-08T23:04:18.592Z,10.90
2022-10-08T23:07:21.554Z,10.80
2022-10-08T23:10:25.027Z,10.90
2022-10-08T23:13:28.645Z,10.80
2022-10-08T23:16:34.286Z,10.80
2022-10-08T23:19:37.340Z,10.80
2022-10-08T23:22:40.307Z,10.80
2022-10-08T23:25:53.766Z,10.80
2022-10-08T23:28:59.253Z,10.80
2022-10-08T23:32:03.614Z,10.80
2022-10-08T23:35:07.508Z,10.70
2022-10-08T23:38:10.868Z,10.80
2022-10-08T23:41:14.744Z,10.80
2022-10-08T23:44:17.696Z,10.80
2022-10-08T23:47:22.031Z,10.80
2022-10-08T23:50:25.039Z,10.90
2022-10-08T23:53:28.239Z,10.90
2022-10-08T23:56:31.447Z,10.90
2022-10-08T23:59:34.418Z,10.90
